createdAt,value
2022-12-14T00:02:53.897Z,-8.42
2022-12-14T00:05:55.819Z,-8.42
2022-12-14T00:09:00.192Z,-8.44
2022-12-14T00:12:02.025Z,-8.39
2022-12-14T00:15:04.669Z,-8.55
2022-12-14T00:18:06.529Z,-8.64
2022-12-14T00:21:13.740Z,-8.58
2022-12-14T00:24:15.599Z,-8.46
2022-12-14T00:27:17.571Z,-8.48
2022-12-14T00:30:20.579Z,-8.49
2022-12-14T00:33:22.400Z,-8.58
2022-12-14T00:36:24.562Z,-8.58
2022-12-14T00:39:26.349Z,-8.56
2022-12-14T00:42:28.055Z,-8.81
2022-12-14T00:45:29.880Z,-8.76
2022-12-14T00:48:32.206Z,-8.66
2022-12-14T00:51:34.311Z,-8.74
2022-12-14T00:54:36.147Z,-8.81
2022-12-14T00:57:38.029Z,-8.70
2022-12-14T01:00:40.505Z,-8.74
2022-12-14T01:03:42.847Z,-8.73
2022-12-14T01:06:46.063Z,-8.61
2022-12-14T01:09:48.335Z,-8.67
2022-12-14T01:12:50.288Z,-8.62
2022-12-14T01:15:55.440Z,-8.57
2022-12-14T01:18:57.309Z,-8.47
2022-12-14T01:21:59.989Z,-8.31
2022-12-14T01:25:02.041Z,-8.38
2022-12-14T01:28:03.880Z,-8.36
2022-12-14T01:31:11.642Z,-8.17
2022-12-14T01:34:13.642Z,-8.06
2022-12-14T01:37:16.128Z,-8.07
2022-12-14T01:40:18.083Z,-8.07
2022-12-14T01:43:19.907Z,-8.10
2022-12-14T01:46:35.364Z,-8.12
2022-12-14T01:49:44.420Z,-8.11
2022-12-14T01:52:50.352Z,-8.08
2022-12-14T01:55:54.367Z,-8.09
2022-12-14T01:58:57.801Z,-8.13
2022-12-14T02:02:06.009Z,-8.02
2022-12-14T02:05:09.829Z,-8.10
2022-12-14T02:08:12.263Z,-8.15
2022-12-14T02:11:14.633Z,-8.21
2022-12-14T02:14:16.675Z,-8.29
2022-12-14T02:17:19.679Z,-8.29
2022-12-14T02:20:22.823Z,-8.25
2022-12-14T02:23:49.015Z,-8.16
2022-12-14T02:27:15.832Z,-8.14
2022-12-14T02:30:23.045Z,-8.12
2022-12-14T02:33:51.055Z,-8.16
2022-12-14T02:37:11.831Z,-8.16
2022-12-14T02:40:19.806Z,-7.95
2022-12-14T02:43:30.273Z,-8.02
2022-12-14T02:46:53.723Z,-7.93
2022-12-14T02:50:22.505Z,-7.80
2022-12-14T02:53:43.374Z,-7.63
2022-12-14T02:56:48.988Z,-7.56
2022-12-14T02:59:54.156Z,-7.50
2022-12-14T03:02:56.253Z,-7.46
2022-12-14T03:06:02.270Z,-7.37
2022-12-14T03:09:11.803Z,-7.31
2022-12-14T03:12:15.967Z,-7.23
2022-12-14T03:15:18.718Z,-7.26
2022-12-14T03:18:24.183Z,-7.27
2022-12-14T03:21:30.030Z,-7.14
2022-12-14T03:24:43.381Z,-7.10
2022-12-14T03:27:51.005Z,-7.15
2022-12-14T03:31:03.194Z,-7.01
2022-12-14T03:34:13.226Z,-7.14
2022-12-14T03:37:32.931Z,-7.15
2022-12-14T03:40:39.224Z,-7.00
2022-12-14T03:43:49.763Z,-6.97
2022-12-14T03:47:05.111Z,-7.23
2022-12-14T03:50:12.578Z,-6.96
2022-12-14T03:53:22.945Z,-6.96
2022-12-14T03:57:08.735Z,-7.04
2022-12-14T04:00:17.345Z,-6.88
2022-12-14T04:03:44.262Z,-6.97
2022-12-14T04:06:48.950Z,-7.00
2022-12-14T04:10:32.335Z,-7.09
2022-12-14T04:13:59.012Z,-7.07
2022-12-14T04:17:21.294Z,-7.03
2022-12-14T04:20:28.318Z,-6.96
2022-12-14T04:23:53.113Z,-6.94
2022-12-14T04:27:15.489Z,-6.88
2022-12-14T04:30:17.870Z,-6.96
2022-12-14T04:33:38.312Z,-7.00
2022-12-14T04:36:44.994Z,-6.99
2022-12-14T04:39:59.579Z,-7.07
2022-12-14T04:43:08.547Z,-7.01
2022-12-14T04:46:18.855Z,-6.94
2022-12-14T04:49:26.292Z,-7.07
2022-12-14T04:52:40.073Z,-6.97
2022-12-14T04:56:24.400Z,-6.85
2022-12-14T04:59:26.784Z,-6.63
2022-12-14T05:02:43.789Z,-6.75
2022-12-14T05:05:57.190Z,-6.82
2022-12-14T05:09:07.584Z,-7.02
2022-12-14T05:12:18.307Z,-6.94
2022-12-14T05:15:23.763Z,-6.87
2022-12-14T05:18:25.822Z,-6.87
2022-12-14T05:21:46.345Z,-6.71
2022-12-14T05:24:48.391Z,-6.51
2022-12-14T05:27:50.686Z,-6.48
2022-12-14T05:30:52.495Z,-6.58
2022-12-14T05:33:55.261Z,-6.59
2022-12-14T05:36:58.426Z,-6.37
2022-12-14T05:40:00.290Z,-6.26
2022-12-14T05:43:06.713Z,-6.15
2022-12-14T05:46:11.690Z,-5.88
2022-12-14T05:49:13.692Z,-5.62
2022-12-14T05:52:15.975Z,-5.49
2022-12-14T05:55:18.438Z,-5.29
2022-12-14T05:58:20.410Z,-5.21
2022-12-14T06:01:22.350Z,-5.42
2022-12-14T06:04:25.207Z,-5.38
2022-12-14T06:07:28.179Z,-5.34
2022-12-14T06:10:30.507Z,-5.39
2022-12-14T06:13:32.431Z,-5.14
2022-12-14T06:16:35.191Z,-4.97
2022-12-14T06:19:37.083Z,-4.86
2022-12-14T06:22:44.194Z,-4.84
2022-12-14T06:25:56.161Z,-4.65
2022-12-14T06:28:58.335Z,-4.49
2022-12-14T06:32:01.508Z,-4.38
2022-12-14T06:35:04.065Z,-4.31
2022-12-14T06:38:05.977Z,-4.18
2022-12-14T06:41:10.274Z,-4.16
2022-12-14T06:44:13.705Z,-4.11
2022-12-14T06:47:15.847Z,-4.00
2022-12-14T06:50:17.737Z,-3.92
2022-12-14T06:53:19.689Z,-3.84
2022-12-14T06:56:23.126Z,-3.78
2022-12-14T06:59:25.157Z,-3.68
2022-12-14T07:02:27.203Z,-3.70
2022-12-14T07:05:29.230Z,-3.60
2022-12-14T07:08:33.005Z,-3.53
2022-12-14T07:11:34.951Z,-3.49
2022-12-14T07:14:36.963Z,-3.51
2022-12-14T07:17:39.230Z,-3.43
2022-12-14T07:20:41.292Z,-3.34
2022-12-14T07:23:44.566Z,-3.25
2022-12-14T07:26:46.872Z,-3.30
2022-12-14T07:29:48.995Z,-3.20
2022-12-14T07:32:51.275Z,-3.15
2022-12-14T07:35:53.327Z,-3.13
2022-12-14T07:38:56.164Z,-3.01
2022-12-14T07:41:58.363Z,-2.99
2022-12-14T07:45:01.379Z,-2.90
2022-12-14T07:48:03.456Z,-2.95
2022-12-14T07:51:07.906Z,-2.90
2022-12-14T07:54:11.070Z,-2.86
2022-12-14T07:57:13.235Z,-2.84
2022-12-14T08:00:15.259Z,-2.66
2022-12-14T08:03:17.465Z,-2.79
2022-12-14T08:06:20.697Z,-3.35
2022-12-14T08:09:22.701Z,-3.68
2022-12-14T08:12:24.826Z,-3.59
2022-12-14T08:15:26.716Z,-3.69
2022-12-14T08:18:29.064Z,-3.72
2022-12-14T08:21:31.309Z,-3.71
2022-12-14T08:24:33.424Z,-3.68
2022-12-14T08:27:35.328Z,-3.50
2022-12-14T08:30:40.946Z,-3.62
2022-12-14T08:33:44.131Z,-3.34
2022-12-14T08:36:47.319Z,-3.24
2022-12-14T08:39:49.664Z,-3.20
2022-12-14T08:42:51.575Z,-3.12
2022-12-14T08:45:55.724Z,-2.97
2022-12-14T08:48:59.072Z,-3.02
2022-12-14T08:52:01.594Z,-3.12
2022-12-14T08:55:03.927Z,-3.06
2022-12-14T08:58:05.853Z,-2.89
2022-12-14T09:01:13.523Z,-3.08
2022-12-14T09:04:15.754Z,-2.90
2022-12-14T09:07:17.671Z,-2.86
2022-12-14T09:10:22.118Z,-2.71
2022-12-14T09:13:24.300Z,-2.52
2022-12-14T09:16:26.604Z,-2.53
2022-12-14T09:19:29.147Z,-2.31
2022-12-14T09:22:31.317Z,-2.32
2022-12-14T09:25:33.715Z,-2.23
2022-12-14T09:28:41.710Z,-2.18
2022-12-14T09:31:44.284Z,-2.09
2022-12-14T09:34:46.254Z,-2.13
2022-12-14T09:37:48.228Z,-2.10
2022-12-14T09:41:05.993Z,-1.91
2022-12-14T09:44:37.397Z,-2.10
2022-12-14T09:47:49.993Z,-1.81
2022-12-14T09:50:52.850Z,-1.71
2022-12-14T09:54:03.000Z,-1.87
2022-12-14T09:57:12.002Z,-1.98
2022-12-14T10:00:19.344Z,-1.85
2022-12-14T10:03:27.671Z,-1.82
2022-12-14T10:06:35.197Z,-1.89
2022-12-14T10:09:40.339Z,-2.01
2022-12-14T10:13:14.549Z,-1.95
2022-12-14T10:16:28.180Z,-1.94
2022-12-14T10:19:44.595Z,-1.92
2022-12-14T10:22:49.916Z,-1.79
2022-12-14T10:25:54.647Z,-1.90
2022-12-14T10:29:02.525Z,-1.79
2022-12-14T10:32:08.272Z,-1.75
2022-12-14T10:35:14.970Z,-1.74
2022-12-14T10:38:59.785Z,-1.65
2022-12-14T10:42:20.467Z,-1.75
2022-12-14T10:45:52.088Z,-1.73
2022-12-14T10:49:14.383Z,-1.80
2022-12-14T10:52:19.586Z,-1.78
2022-12-14T10:55:26.120Z,-1.81
2022-12-14T10:58:28.617Z,-1.55
2022-12-14T11:01:30.871Z,-1.57
2022-12-14T11:04:56.223Z,-1.32
2022-12-14T11:07:58.342Z,-1.33
2022-12-14T11:11:19.410Z,-1.20
2022-12-14T11:14:22.920Z,-1.22
2022-12-14T11:17:41.460Z,-1.25
2022-12-14T11:20:59.646Z,-1.32
2022-12-14T11:24:02.699Z,-1.33
2022-12-14T11:27:06.493Z,-1.22
2022-12-14T11:30:16.763Z,-1.26
2022-12-14T11:33:18.821Z,-1.30
2022-12-14T11:36:32.736Z,-1.33
2022-12-14T11:39:40.330Z,-1.21
2022-12-14T11:42:48.391Z,-1.30
2022-12-14T11:45:51.621Z,-1.14
2022-12-14T11:48:53.725Z,-1.09
2022-12-14T11:52:00.024Z,-1.12
2022-12-14T11:55:02.007Z,-1.24
2022-12-14T11:58:04.230Z,-1.04
2022-12-14T12:01:12.392Z,-0.93
2022-12-14T12:04:15.874Z,-0.90
2022-12-14T12:07:30.849Z,-1.03
2022-12-14T12:10:50.284Z,-0.87
2022-12-14T12:14:11.244Z,-1.16
2022-12-14T12:17:37.369Z,-0.90
2022-12-14T12:20:43.413Z,-0.87
2022-12-14T12:24:18.093Z,-0.78
2022-12-14T12:27:20.887Z,-0.90
2022-12-14T12:30:28.717Z,-0.97
2022-12-14T12:33:54.848Z,-0.93
2022-12-14T12:37:25.402Z,-0.93
2022-12-14T12:40:33.161Z,-0.98
2022-12-14T12:43:42.533Z,-0.86
2022-12-14T12:47:26.048Z,-0.97
2022-12-14T12:50:32.787Z,-1.05
2022-12-14T12:53:50.027Z,-1.23
2022-12-14T12:56:54.037Z,-1.13
2022-12-14T12:59:57.729Z,-1.22
2022-12-14T13:03:17.960Z,-1.14
2022-12-14T13:06:36.169Z,-1.01
2022-12-14T13:09:45.184Z,-1.03
2022-12-14T13:13:01.702Z,-1.12
2022-12-14T13:16:13.457Z,-1.05
2022-12-14T13:19:50.634Z,-1.10
2022-12-14T13:22:54.200Z,-1.01
2022-12-14T13:26:56.644Z,-1.00
2022-12-14T13:30:06.449Z,-1.08
2022-12-14T13:33:13.606Z,-1.12
2022-12-14T13:36:21.636Z,-1.14
2022-12-14T13:39:26.796Z,-1.14
2022-12-14T13:42:59.793Z,-1.11
2022-12-14T13:46:07.857Z,-1.17
2022-12-14T13:49:19.938Z,-1.17
2022-12-14T13:52:32.354Z,-1.16
2022-12-14T13:56:00.724Z,-1.12
2022-12-14T13:59:06.330Z,-1.12
2022-12-14T14:02:30.495Z,-1.20
2022-12-14T14:05:35.765Z,-1.32
2022-12-14T14:08:51.795Z,-1.29
2022-12-14T14:12:05.272Z,-1.31
2022-12-14T14:15:27.822Z,-1.35
2022-12-14T14:19:08.491Z,-1.34
2022-12-14T14:22:26.579Z,-1.31
2022-12-14T14:25:34.648Z,-1.34
2022-12-14T14:28:38.495Z,-1.35
2022-12-14T14:31:48.481Z,-1.36
2022-12-14T14:34:51.435Z,-1.37
2022-12-14T14:38:25.819Z,-1.39
2022-12-14T14:41:51.157Z,-1.41
2022-12-14T14:44:59.500Z,-1.43
2022-12-14T14:48:08.794Z,-1.46
2022-12-14T14:51:11.093Z,-1.43
2022-12-14T14:58:05.168Z,-1.45
2022-12-14T15:01:10.341Z,-1.43
2022-12-14T15:04:23.953Z,-1.46
2022-12-14T15:07:29.835Z,-1.52
2022-12-14T15:10:37.660Z,-1.57
2022-12-14T15:14:04.671Z,-1.54
2022-12-14T15:17:13.790Z,-1.58
2022-12-14T15:20:34.698Z,-1.52
2022-12-14T15:23:40.050Z,-1.44
2022-12-14T15:26:42.425Z,-1.59
2022-12-14T15:29:46.916Z,-1.46
2022-12-14T15:32:59.065Z,-1.44
2022-12-14T15:36:20.296Z,-1.43
2022-12-14T15:39:38.701Z,-1.37
2022-12-14T15:42:47.835Z,-1.42
2022-12-14T15:45:55.994Z,-1.45
2022-12-14T15:49:00.577Z,-1.39
2022-12-14T15:52:03.351Z,-1.44
2022-12-14T15:55:06.610Z,-1.52
2022-12-14T15:58:17.815Z,-1.41
2022-12-14T16:01:28.297Z,-1.47
2022-12-14T16:04:32.424Z,-1.53
2022-12-14T16:07:55.343Z,-1.51
2022-12-14T16:11:00.974Z,-1.51
2022-12-14T16:14:17.813Z,-1.46
2022-12-14T16:17:32.680Z,-1.49
2022-12-14T16:20:37.275Z,-1.52
2022-12-14T16:23:45.235Z,-1.34
2022-12-14T16:26:56.296Z,-1.35
2022-12-14T16:30:17.972Z,-1.31
2022-12-14T16:33:21.434Z,-1.40
2022-12-14T16:36:25.791Z,-1.32
2022-12-14T16:39:34.704Z,-1.42
2022-12-14T16:42:37.010Z,-1.49
2022-12-14T16:45:42.462Z,-1.67
2022-12-14T16:49:09.840Z,-1.82
2022-12-14T16:52:33.782Z,-1.93
2022-12-14T16:56:06.580Z,-1.99
2022-12-14T16:59:32.255Z,-1.99
2022-12-14T17:02:38.668Z,-2.07
2022-12-14T17:05:41.978Z,-2.14
2022-12-14T17:08:44.720Z,-2.37
2022-12-14T17:11:47.332Z,-2.51
2022-12-14T17:14:50.174Z,-2.61
2022-12-14T17:17:54.329Z,-2.57
2022-12-14T17:20:57.013Z,-2.60
2022-12-14T17:23:59.693Z,-2.66
2022-12-14T17:27:02.076Z,-2.48
2022-12-14T17:30:06.292Z,-2.18
2022-12-14T17:33:09.481Z,-2.03
2022-12-14T17:36:11.954Z,-2.10
2022-12-14T17:39:14.034Z,-2.20
2022-12-14T17:42:18.333Z,-2.10
2022-12-14T17:45:28.737Z,-2.06
2022-12-14T17:48:31.309Z,-1.95
2022-12-14T17:51:41.334Z,-1.91
2022-12-14T17:54:44.043Z,-2.04
2022-12-14T17:57:46.828Z,-1.96
2022-12-14T18:01:01.648Z,-1.92
2022-12-14T18:04:03.983Z,-1.90
2022-12-14T18:07:06.974Z,-1.84
2022-12-14T18:10:10.006Z,-1.89
2022-12-14T18:13:13.507Z,-1.78
2022-12-14T18:16:18.154Z,-1.74
2022-12-14T18:19:20.759Z,-1.81
2022-12-14T18:22:23.340Z,-1.81
2022-12-14T18:25:48.051Z,-1.77
2022-12-14T18:28:53.107Z,-1.74
2022-12-14T18:31:55.593Z,-1.74
2022-12-14T18:35:00.531Z,-1.76
2022-12-14T18:38:02.514Z,-1.77
2022-12-14T18:41:05.713Z,-1.77
2022-12-14T18:44:08.814Z,-1.86
2022-12-14T18:47:40.057Z,-1.84
2022-12-14T18:50:36.178Z,-1.77
2022-12-14T18:53:42.995Z,-1.82
2022-12-14T18:56:45.656Z,-1.88
2022-12-14T18:59:51.720Z,-1.85
2022-12-14T19:02:57.680Z,-1.80
2022-12-14T19:06:42.057Z,-1.82
2022-12-14T19:09:32.853Z,-1.89
2022-12-14T19:12:58.509Z,-1.89
2022-12-14T19:16:01.331Z,-1.81
2022-12-14T19:19:03.966Z,-1.97
2022-12-14T19:22:19.983Z,-2.05
2022-12-14T19:25:23.356Z,-1.91
2022-12-14T19:28:32.327Z,-1.91
2022-12-14T19:31:34.947Z,-1.98
2022-12-14T19:34:39.690Z,-2.15
2022-12-14T19:37:42.166Z,-2.14
2022-12-14T19:40:46.940Z,-2.34
2022-12-14T19:43:49.057Z,-2.29
2022-12-14T19:46:51.398Z,-2.31
2022-12-14T19:49:53.702Z,-2.23
2022-12-14T19:52:55.779Z,-2.20
2022-12-14T19:55:57.968Z,-2.08
2022-12-14T19:59:03.837Z,-2.06
2022-12-14T20:02:07.045Z,-2.13
2022-12-14T20:05:09.557Z,-2.07
2022-12-14T20:08:12.480Z,-2.00
2022-12-14T20:11:15.326Z,-1.95
2022-12-14T20:14:18.738Z,-1.84
2022-12-14T20:17:21.579Z,-1.91
2022-12-14T20:20:24.382Z,-1.81
2022-12-14T20:23:26.803Z,-1.72
2022-12-14T20:26:30.202Z,-1.68
2022-12-14T20:29:32.644Z,-1.73
2022-12-14T20:32:34.852Z,-1.86
2022-12-14T20:35:37.470Z,-1.80
2022-12-14T20:38:40.564Z,-1.92
2022-12-14T20:41:44.122Z,-2.05
2022-12-14T20:44:50.638Z,-2.12
2022-12-14T20:47:56.465Z,-2.10
2022-12-14T20:51:03.976Z,-2.23
2022-12-14T20:54:20.375Z,-2.19
2022-12-14T20:57:28.952Z,-2.01
2022-12-14T21:00:32.583Z,-2.22
2022-12-14T21:03:42.496Z,-2.22
2022-12-14T21:06:45.533Z,-1.95
2022-12-14T21:09:55.578Z,-2.07
2022-12-14T21:13:07.870Z,-2.17
2022-12-14T21:16:10.448Z,-2.22
2022-12-14T21:19:14.109Z,-2.23
2022-12-14T21:22:21.147Z,-2.25
2022-12-14T21:25:24.452Z,-2.23
2022-12-14T21:28:31.991Z,-2.26
2022-12-14T21:31:38.477Z,-2.31
2022-12-14T21:34:41.945Z,-2.46
2022-12-14T21:37:47.134Z,-2.48
2022-12-14T21:41:14.554Z,-2.52
2022-12-14T21:44:17.613Z,-2.38
2022-12-14T21:47:28.393Z,-2.20
2022-12-14T21:50:30.901Z,-2.07
2022-12-14T21:54:01.716Z,-1.99
2022-12-14T21:57:23.683Z,-1.91
2022-12-14T22:00:35.005Z,-1.88
2022-12-14T22:03:39.732Z,-1.75
2022-12-14T22:06:44.594Z,-1.73
2022-12-14T22:09:49.513Z,-1.62
2022-12-14T22:12:58.542Z,-1.60
2022-12-14T22:16:08.250Z,-1.45
2022-12-14T22:19:18.731Z,-1.40
2022-12-14T22:22:24.665Z,-1.47
2022-12-14T22:25:27.272Z,-1.44
2022-12-14T22:28:30.186Z,-1.36
2022-12-14T22:31:38.306Z,-1.34
2022-12-14T22:34:43.693Z,-1.35
2022-12-14T22:37:46.059Z,-1.36
2022-12-14T22:41:08.066Z,-1.32
2022-12-14T22:44:16.166Z,-1.41
2022-12-14T22:47:26.330Z,-1.42
2022-12-14T22:50:38.052Z,-1.34
2022-12-14T22:53:43.565Z,-1.31
2022-12-14T22:57:06.813Z,-1.29
2022-12-14T23:00:20.844Z,-1.32
2022-12-14T23:03:26.412Z,-1.24
2022-12-14T23:06:37.522Z,-1.24
2022-12-14T23:09:58.517Z,-1.19
2022-12-14T23:13:24.238Z,-1.27
2022-12-14T23:16:50.187Z,-1.22
2022-12-14T23:20:17.772Z,-1.25
2022-12-14T23:23:42.715Z,-1.17
2022-12-14T23:27:09.105Z,-1.24
2022-12-14T23:30:33.894Z,-1.35
2022-12-14T23:33:55.383Z,-1.23
2022-12-14T23:37:20.178Z,-1.23
2022-12-14T23:40:44.837Z,-1.22
2022-12-14T23:44:06.381Z,-1.15
2022-12-14T23:47:30.191Z,-1.12
2022-12-14T23:50:56.443Z,-1.14
2022-12-14T23:54:21.256Z,-1.15
2022-12-14T23:57:45.790Z,-1.18
